createdAt,value
2016-08-13T00:00:21.341Z,-79
2016-08-13T00:01:21.329Z,-79
2016-08-13T00:02:21.257Z,-79
2016-08-13T00:03:21.342Z,-79
2016-08-13T00:04:21.184Z,-79
2016-08-13T00:05:21.261Z,-79
2016-08-13T00:06:21.347Z,-79
2016-08-13T00:07:21.290Z,-79
2016-08-13T00:08:21.215Z,-79
2016-08-13T00:09:21.291Z,-79
2016-08-13T00:10:21.306Z,-80
2016-08-13T00:11:21.441Z,-79
2016-08-13T00:12:21.295Z,-79
2016-08-13T00:13:21.216Z,-79
2016-08-13T00:14:21.361Z,-79
2016-08-13T00:15:21.403Z,-79
2016-08-13T00:16:21.396Z,-79
2016-08-13T00:17:21.369Z,-79
2016-08-13T00:18:21.380Z,-79
2016-08-13T00:19:21.460Z,-80
2016-08-13T00:20:21.319Z,-79
2016-08-13T00:21:21.459Z,-79
2016-08-13T00:22:21.353Z,-79
2016-08-13T00:23:21.472Z,-79
2016-08-13T00:24:21.247Z,-80
2016-08-13T00:25:21.246Z,-79
2016-08-13T00:26:21.358Z,-79
2016-08-13T00:27:21.498Z,-79
2016-08-13T00:28:21.538Z,-79
2016-08-13T00:29:21.406Z,-79
2016-08-13T00:30:21.437Z,-80
2016-08-13T00:31:21.354Z,-79
2016-08-13T00:32:21.341Z,-79
2016-08-13T00:33:21.357Z,-79
2016-08-13T00:34:21.365Z,-79
2016-08-13T00:35:21.513Z,-79
2016-08-13T00:36:21.439Z,-79
2016-08-13T00:37:21.360Z,-80
2016-08-13T00:38:21.450Z,-79
2016-08-13T00:39:21.373Z,-79
2016-08-13T00:40:21.445Z,-79
2016-08-13T00:41:21.504Z,-80
2016-08-13T00:42:21.457Z,-79
2016-08-13T00:43:21.464Z,-80
2016-08-13T00:44:21.389Z,-80
2016-08-13T00:45:21.387Z,-79
2016-08-13T00:46:21.398Z,-79
2016-08-13T00:47:21.385Z,-79
2016-08-13T00:48:21.473Z,-79
2016-08-13T00:49:21.399Z,-80
2016-08-13T00:50:21.493Z,-80
2016-08-13T00:51:21.332Z,-79
2016-08-13T00:52:21.467Z,-79
2016-08-13T00:53:21.505Z,-79
2016-08-13T00:54:21.440Z,-79
2016-08-13T00:55:21.572Z,-79
2016-08-13T00:56:21.490Z,-79
2016-08-13T00:57:21.491Z,-80
2016-08-13T00:58:21.507Z,-79
2016-08-13T00:59:21.426Z,-79
2016-08-13T01:00:21.501Z,-79
2016-08-13T01:01:21.445Z,-79
2016-08-13T01:02:21.429Z,-79
2016-08-13T01:03:21.508Z,-79
2016-08-13T01:04:21.370Z,-79
2016-08-13T01:05:21.530Z,-80
2016-08-13T01:06:21.382Z,-80
2016-08-13T01:07:21.529Z,-79
2016-08-13T01:08:21.376Z,-79
2016-08-13T01:09:21.535Z,-79
2016-08-13T01:10:21.460Z,-80
2016-08-13T01:11:21.528Z,-80
2016-08-13T01:12:21.522Z,-79
2016-08-13T01:13:21.457Z,-79
2016-08-13T01:14:21.616Z,-80
2016-08-13T01:15:21.525Z,-79
2016-08-13T01:16:21.546Z,-79
2016-08-13T01:17:21.467Z,-80
2016-08-13T01:18:21.633Z,-79
2016-08-13T01:19:21.551Z,-80
2016-08-13T01:20:21.556Z,-79
2016-08-13T01:21:21.496Z,-80
2016-08-13T01:22:21.488Z,-79
2016-08-13T01:23:21.575Z,-79
2016-08-13T01:24:21.643Z,-79
2016-08-13T01:25:21.513Z,-79
2016-08-13T01:26:21.574Z,-80
2016-08-13T01:27:21.517Z,-79
2016-08-13T01:28:21.579Z,-80
2016-08-13T01:29:21.880Z,-79
2016-08-13T01:30:21.440Z,-80
2016-08-13T01:31:21.719Z,-80
2016-08-13T01:32:21.588Z,-79
2016-08-13T01:33:21.534Z,-80
2016-08-13T01:34:21.620Z,-80
2016-08-13T01:35:21.613Z,-80
2016-08-13T01:36:21.618Z,-79
2016-08-13T01:37:21.454Z,-79
2016-08-13T01:38:21.464Z,-80
2016-08-13T01:39:21.552Z,-80
2016-08-13T01:40:21.675Z,-80
2016-08-13T01:41:21.547Z,-80
2016-08-13T01:42:21.628Z,-80
2016-08-13T01:43:21.621Z,-80
2016-08-13T01:44:21.559Z,-80
2016-08-13T01:45:21.563Z,-80
2016-08-13T01:46:21.482Z,-80
2016-08-13T01:47:21.635Z,-80
2016-08-13T01:48:21.709Z,-80
2016-08-13T01:49:21.498Z,-80
2016-08-13T01:50:21.555Z,-79
2016-08-13T01:51:21.735Z,-80
2016-08-13T01:52:21.743Z,-80
2016-08-13T01:53:21.584Z,-80
2016-08-13T01:54:21.682Z,-80
2016-08-13T01:55:21.592Z,-79
2016-08-13T01:56:21.508Z,-79
2016-08-13T01:57:21.594Z,-80
2016-08-13T01:58:21.504Z,-79
2016-08-13T01:59:21.525Z,-80
2016-08-13T02:00:21.681Z,-80
2016-08-13T02:01:21.668Z,-80
2016-08-13T02:02:21.608Z,-80
2016-08-13T02:03:21.674Z,-80
2016-08-13T02:04:21.680Z,-80
2016-08-13T02:05:21.534Z,-79
2016-08-13T02:06:21.708Z,-80
2016-08-13T02:07:21.625Z,-80
2016-08-13T02:08:21.621Z,-80
2016-08-13T02:09:21.703Z,-79
2016-08-13T02:10:21.635Z,-80
2016-08-13T02:11:21.703Z,-80
2016-08-13T02:12:21.715Z,-80
2016-08-13T02:13:21.641Z,-80
2016-08-13T02:14:21.630Z,-80
2016-08-13T02:15:21.639Z,-80
2016-08-13T02:16:21.713Z,-80
2016-08-13T02:17:21.653Z,-80
2016-08-13T02:18:21.797Z,-80
2016-08-13T02:19:21.738Z,-80
2016-08-13T02:20:21.724Z,-80
2016-08-13T02:21:21.733Z,-79
2016-08-13T02:22:21.665Z,-80
2016-08-13T02:23:21.666Z,-80
2016-08-13T02:24:21.763Z,-80
2016-08-13T02:25:21.689Z,-80
2016-08-13T02:26:21.674Z,-80
2016-08-13T02:27:21.768Z,-80
2016-08-13T02:28:21.744Z,-80
2016-08-13T02:29:21.771Z,-80
2016-08-13T02:30:21.608Z,-80
2016-08-13T02:31:21.844Z,-80
2016-08-13T02:32:21.757Z,-79
2016-08-13T02:33:21.607Z,-80
2016-08-13T02:34:21.858Z,-80
2016-08-13T02:35:21.693Z,-80
2016-08-13T02:36:21.703Z,-80
2016-08-13T02:37:21.704Z,-80
2016-08-13T02:38:21.708Z,-79
2016-08-13T02:39:21.779Z,-80
2016-08-13T02:40:21.706Z,-80
2016-08-13T02:41:21.721Z,-80
2016-08-13T02:42:21.844Z,-80
2016-08-13T02:43:21.876Z,-80
2016-08-13T02:44:21.641Z,-80
2016-08-13T02:45:21.795Z,-80
2016-08-13T02:46:21.810Z,-80
2016-08-13T02:47:21.720Z,-80
2016-08-13T02:48:21.694Z,-80
2016-08-13T02:49:21.657Z,-80
2016-08-13T02:50:21.661Z,-80
2016-08-13T02:51:21.885Z,-80
2016-08-13T02:52:21.826Z,-80
2016-08-13T02:53:21.740Z,-80
2016-08-13T02:54:21.750Z,-80
2016-08-13T02:55:21.826Z,-80
2016-08-13T02:56:21.848Z,-80
2016-08-13T02:57:21.813Z,-80
2016-08-13T02:58:21.761Z,-80
2016-08-13T02:59:21.833Z,-80
2016-08-13T03:00:21.777Z,-80
2016-08-13T03:01:21.856Z,-80
2016-08-13T03:02:21.856Z,-81
2016-08-13T03:03:21.864Z,-80
2016-08-13T03:04:21.735Z,-80
2016-08-13T03:05:21.847Z,-80
2016-08-13T03:06:21.708Z,-80
2016-08-13T03:07:21.873Z,-80
2016-08-13T03:08:21.712Z,-80
2016-08-13T03:09:21.797Z,-80
2016-08-13T03:10:21.878Z,-80
2016-08-13T03:11:21.964Z,-80
2016-08-13T03:12:21.879Z,-80
2016-08-13T03:13:21.881Z,-80
2016-08-13T03:14:21.730Z,-80
2016-08-13T03:15:21.904Z,-80
2016-08-13T03:16:21.815Z,-80
2016-08-13T03:17:21.748Z,-80
2016-08-13T03:18:21.828Z,-80
2016-08-13T03:19:21.821Z,-80
2016-08-13T03:20:21.827Z,-80
2016-08-13T03:21:21.837Z,-80
2016-08-13T03:22:21.849Z,-80
2016-08-13T03:23:21.835Z,-80
2016-08-13T03:24:21.759Z,-80
2016-08-13T03:25:21.907Z,-80
2016-08-13T03:26:21.951Z,-80
2016-08-13T03:27:21.881Z,-80
2016-08-13T03:28:21.775Z,-80
2016-08-13T03:29:21.935Z,-80
2016-08-13T03:30:21.964Z,-80
2016-08-13T03:31:22.000Z,-80
2016-08-13T03:32:21.788Z,-80
2016-08-13T03:33:21.864Z,-80
2016-08-13T03:34:22.049Z,-80
2016-08-13T03:35:21.954Z,-80
2016-08-13T03:36:21.886Z,-80
2016-08-13T03:37:21.941Z,-80
2016-08-13T03:38:22.049Z,-80
2016-08-13T03:39:21.960Z,-80
2016-08-13T03:40:21.887Z,-80
2016-08-13T03:41:21.947Z,-80
2016-08-13T03:42:21.998Z,-80
2016-08-13T03:43:21.922Z,-80
2016-08-13T03:44:22.034Z,-80
2016-08-13T03:45:21.963Z,-79
2016-08-13T03:46:21.821Z,-80
2016-08-13T03:47:21.989Z,-80
2016-08-13T03:48:21.827Z,-80
2016-08-13T03:49:21.912Z,-80
2016-08-13T03:50:21.853Z,-80
2016-08-13T03:51:21.988Z,-80
2016-08-13T03:52:21.991Z,-80
2016-08-13T03:53:21.922Z,-81
2016-08-13T03:54:21.919Z,-80
2016-08-13T03:55:21.926Z,-80
2016-08-13T03:56:21.936Z,-80
2016-08-13T03:57:21.931Z,-80
2016-08-13T03:58:21.959Z,-80
2016-08-13T03:59:22.021Z,-80
2016-08-13T04:00:21.955Z,-80
2016-08-13T04:01:21.935Z,-80
2016-08-13T04:02:22.137Z,-80
2016-08-13T04:03:22.015Z,-80
2016-08-13T04:04:21.956Z,-80
2016-08-13T04:05:21.943Z,-80
2016-08-13T04:06:22.024Z,-80
2016-08-13T04:07:22.031Z,-80
2016-08-13T04:08:21.959Z,-80
2016-08-13T04:09:22.027Z,-80
2016-08-13T04:10:21.971Z,-80
2016-08-13T04:11:22.111Z,-80
2016-08-13T04:12:21.959Z,-80
2016-08-13T04:13:22.116Z,-80
2016-08-13T04:14:22.047Z,-80
2016-08-13T04:15:21.982Z,-79
2016-08-13T04:16:22.113Z,-80
2016-08-13T04:17:21.970Z,-80
2016-08-13T04:18:22.057Z,-79
2016-08-13T04:19:21.981Z,-79
2016-08-13T04:20:22.060Z,-80
2016-08-13T04:21:21.987Z,-80
2016-08-13T04:22:22.089Z,-79
2016-08-13T04:23:22.015Z,-80
2016-08-13T04:24:22.010Z,-80
2016-08-13T04:25:22.014Z,-80
2016-08-13T04:26:22.083Z,-80
2016-08-13T04:27:22.029Z,-79
2016-08-13T04:28:21.953Z,-80
2016-08-13T04:29:22.053Z,-79
2016-08-13T04:30:22.089Z,-79
2016-08-13T04:31:22.035Z,-80
2016-08-13T04:32:22.227Z,-80
2016-08-13T04:33:22.139Z,-80
2016-08-13T04:34:22.117Z,-79
2016-08-13T04:35:22.055Z,-80
2016-08-13T04:36:22.197Z,-79
2016-08-13T04:37:22.111Z,-80
2016-08-13T04:38:22.052Z,-79
2016-08-13T04:39:22.132Z,-80
2016-08-13T04:40:21.994Z,-80
2016-08-13T04:41:22.202Z,-79
2016-08-13T04:42:21.987Z,-79
2016-08-13T04:43:21.986Z,-80
2016-08-13T04:44:21.975Z,-80
2016-08-13T04:45:22.207Z,-79
2016-08-13T04:46:22.059Z,-79
2016-08-13T04:47:22.143Z,-80
2016-08-13T04:48:22.161Z,-79
2016-08-13T04:49:22.160Z,-79
2016-08-13T04:50:22.268Z,-79
2016-08-13T04:51:22.173Z,-82
2016-08-13T04:52:22.086Z,-89
2016-08-13T04:53:22.093Z,-89
2016-08-13T04:54:22.283Z,-89
2016-08-13T04:55:22.159Z,-90
2016-08-13T04:56:22.251Z,-89
2016-08-13T04:57:22.235Z,-90
2016-08-13T04:58:22.144Z,-89
2016-08-13T04:59:22.192Z,-90
2016-08-13T05:00:22.042Z,-89
2016-08-13T05:01:22.104Z,-89
2016-08-13T05:02:22.124Z,-89
2016-08-13T05:03:22.303Z,-89
2016-08-13T05:04:22.283Z,-89
2016-08-13T05:05:22.204Z,-88
2016-08-13T05:06:22.128Z,-89
2016-08-13T05:07:22.145Z,-89
2016-08-13T05:08:22.140Z,-89
2016-08-13T05:09:22.216Z,-89
2016-08-13T05:10:22.076Z,-88
2016-08-13T05:11:22.158Z,-89
2016-08-13T05:12:22.234Z,-89
2016-08-13T05:13:22.067Z,-90
2016-08-13T05:14:22.165Z,-89
2016-08-13T05:15:22.233Z,-89
2016-08-13T05:16:22.295Z,-89
2016-08-13T05:17:22.101Z,-89
2016-08-13T05:18:22.151Z,-89
2016-08-13T05:19:22.171Z,-89
2016-08-13T05:20:22.165Z,-89
2016-08-13T05:21:22.178Z,-89
2016-08-13T05:22:22.250Z,-89
2016-08-13T05:23:22.174Z,-88
2016-08-13T05:24:22.088Z,-89
2016-08-13T05:25:22.264Z,-89
2016-08-13T05:26:22.191Z,-88
2016-08-13T05:27:22.196Z,-89
2016-08-13T05:28:22.196Z,-88
2016-08-13T05:29:22.123Z,-88
2016-08-13T05:30:22.200Z,-89
2016-08-13T05:31:22.129Z,-88
2016-08-13T05:32:22.455Z,-89
2016-08-13T05:33:22.192Z,-89
2016-08-13T05:34:22.286Z,-89
2016-08-13T05:35:22.238Z,-88
2016-08-13T05:36:22.380Z,-88
2016-08-13T05:37:22.219Z,-89
2016-08-13T05:38:22.223Z,-89
2016-08-13T05:39:22.142Z,-89
2016-08-13T05:40:22.140Z,-88
2016-08-13T05:41:22.309Z,-89
2016-08-13T05:42:22.239Z,-89
2016-08-13T05:43:22.259Z,-89
2016-08-13T05:44:22.319Z,-88
2016-08-13T05:45:22.246Z,-89
2016-08-13T05:46:22.255Z,-89
2016-08-13T05:47:22.338Z,-88
2016-08-13T05:48:22.245Z,-88
2016-08-13T05:49:22.423Z,-89
2016-08-13T05:50:22.245Z,-88
2016-08-13T05:51:22.344Z,-88
2016-08-13T05:52:22.261Z,-89
2016-08-13T05:53:22.344Z,-88
2016-08-13T05:54:22.275Z,-88
2016-08-13T05:55:22.257Z,-89
2016-08-13T05:56:22.269Z,-88
2016-08-13T05:57:22.369Z,-88
2016-08-13T05:58:22.274Z,-89
2016-08-13T05:59:22.356Z,-89
2016-08-13T06:00:22.286Z,-88
2016-08-13T06:01:22.368Z,-88
2016-08-13T06:02:22.280Z,-88
2016-08-13T06:03:22.371Z,-88
2016-08-13T06:04:22.285Z,-88
2016-08-13T06:05:22.454Z,-88
2016-08-13T06:06:22.294Z,-87
2016-08-13T06:07:22.236Z,-88
2016-08-13T06:08:22.470Z,-88
2016-08-13T06:09:22.303Z,-88
2016-08-13T06:10:22.393Z,-87
2016-08-13T06:11:22.398Z,-88
2016-08-13T06:12:22.391Z,-88
2016-08-13T06:13:22.331Z,-88
2016-08-13T06:14:22.422Z,-88
2016-08-13T06:15:22.470Z,-87
2016-08-13T06:16:22.496Z,-87
2016-08-13T06:17:22.325Z,-87
2016-08-13T06:18:22.563Z,-87
2016-08-13T06:19:22.421Z,-88
2016-08-13T06:20:22.430Z,-88
2016-08-13T06:21:22.409Z,-88
2016-08-13T06:22:22.346Z,-88
2016-08-13T06:23:22.441Z,-87
2016-08-13T06:24:22.447Z,-87
2016-08-13T06:25:22.356Z,-86
2016-08-13T06:26:22.361Z,-87
2016-08-13T06:27:22.363Z,-88
2016-08-13T06:28:22.444Z,-88
2016-08-13T06:29:22.371Z,-87
2016-08-13T06:30:22.361Z,-87
2016-08-13T06:31:22.432Z,-86
2016-08-13T06:32:22.441Z,-87
2016-08-13T06:33:22.431Z,-86
2016-08-13T06:34:22.448Z,-87
2016-08-13T06:35:22.446Z,-87
2016-08-13T06:36:22.311Z,-87
2016-08-13T06:37:22.458Z,-87
2016-08-13T06:38:22.534Z,-87
2016-08-13T06:39:22.471Z,-87
2016-08-13T06:40:22.467Z,-87
2016-08-13T06:41:22.461Z,-87
2016-08-13T06:42:22.476Z,-87
2016-08-13T06:43:22.403Z,-87
2016-08-13T06:44:22.410Z,-87
2016-08-13T06:45:22.500Z,-87
2016-08-13T06:46:22.498Z,-87
2016-08-13T06:47:22.572Z,-87
2016-08-13T06:48:22.597Z,-87
2016-08-13T06:49:22.585Z,-87
2016-08-13T06:50:22.566Z,-87
2016-08-13T06:51:22.426Z,-88
2016-08-13T06:52:22.432Z,-87
2016-08-13T06:53:22.434Z,-87
2016-08-13T06:54:22.512Z,-87
2016-08-13T06:55:22.521Z,-87
2016-08-13T06:56:22.356Z,-87
2016-08-13T06:57:22.595Z,-87
2016-08-13T06:58:22.417Z,-87
2016-08-13T06:59:22.541Z,-88
2016-08-13T07:00:22.445Z,-86
2016-08-13T07:01:22.369Z,-87
2016-08-13T07:02:22.544Z,-87
2016-08-13T07:03:22.490Z,-87
2016-08-13T07:04:22.460Z,-87
2016-08-13T07:05:22.618Z,-87
2016-08-13T07:06:22.458Z,-87
2016-08-13T07:07:22.473Z,-87
2016-08-13T07:08:22.464Z,-87
2016-08-13T07:09:22.546Z,-87
2016-08-13T07:10:22.553Z,-87
2016-08-13T07:11:22.564Z,-87
2016-08-13T07:18:51.145Z,-87
2016-08-13T07:18:58.172Z,-87
2016-08-13T07:19:58.083Z,-87
2016-08-13T07:20:58.091Z,-87
2016-08-13T07:21:57.958Z,-87
2016-08-13T07:22:58.125Z,-86
2016-08-13T07:23:58.188Z,-87
2016-08-13T07:24:57.964Z,-86
2016-08-13T07:25:58.047Z,-87
2016-08-13T07:26:58.075Z,-87
2016-08-13T07:27:58.057Z,-87
2016-08-13T07:28:58.123Z,-87
2016-08-13T07:29:58.142Z,-87
2016-08-13T07:30:57.975Z,-87
2016-08-13T07:31:57.972Z,-87
2016-08-13T07:32:58.183Z,-87
2016-08-13T07:33:57.995Z,-86
2016-08-13T07:34:58.178Z,-87
2016-08-13T07:35:58.155Z,-87
2016-08-13T07:36:58.065Z,-86
2016-08-13T07:37:58.098Z,-87
2016-08-13T07:38:58.181Z,-87
2016-08-13T07:39:58.151Z,-87
2016-08-13T07:40:58.077Z,-87
2016-08-13T07:41:58.086Z,-87
2016-08-13T07:42:58.186Z,-87
2016-08-13T07:43:58.090Z,-87
2016-08-13T07:44:58.079Z,-87
2016-08-13T07:45:58.246Z,-87
2016-08-13T07:46:58.020Z,-88
2016-08-13T07:47:58.106Z,-88
2016-08-13T07:48:58.185Z,-87
2016-08-13T07:49:58.040Z,-87
2016-08-13T07:50:58.271Z,-87
2016-08-13T07:51:58.195Z,-87
2016-08-13T07:52:58.192Z,-87
2016-08-13T07:53:58.206Z,-87
2016-08-13T07:54:58.154Z,-87
2016-08-13T07:55:58.159Z,-87
2016-08-13T07:56:58.242Z,-87
2016-08-13T07:57:58.140Z,-87
2016-08-13T07:58:58.207Z,-87
2016-08-13T07:59:58.059Z,-87
2016-08-13T08:00:58.137Z,-87
2016-08-13T08:01:58.232Z,-87
2016-08-13T08:02:58.151Z,-87
2016-08-13T08:03:58.219Z,-87
2016-08-13T08:04:58.156Z,-87
2016-08-13T08:05:58.153Z,-87
2016-08-13T08:06:58.229Z,-87
2016-08-13T08:07:58.079Z,-87
2016-08-13T08:08:58.091Z,-87
2016-08-13T08:09:58.169Z,-88
2016-08-13T08:10:58.187Z,-87
2016-08-13T08:11:58.173Z,-88
2016-08-13T08:12:58.102Z,-87
2016-08-13T08:13:58.201Z,-87
2016-08-13T08:14:58.141Z,-87
2016-08-13T08:15:58.183Z,-87
2016-08-13T08:16:58.331Z,-87
2016-08-13T08:17:58.181Z,-87
2016-08-13T08:18:58.340Z,-87
2016-08-13T08:19:58.267Z,-87
2016-08-13T08:20:58.282Z,-87
2016-08-13T08:21:58.205Z,-87
2016-08-13T08:22:58.278Z,-87
2016-08-13T08:23:58.198Z,-87
2016-08-13T08:24:58.379Z,-87
2016-08-13T08:25:58.210Z,-87
2016-08-13T08:26:58.147Z,-87
2016-08-13T08:27:58.227Z,-86
2016-08-13T08:28:58.379Z,-86
2016-08-13T08:29:58.215Z,-87
2016-08-13T08:30:58.248Z,-87
2016-08-13T08:31:58.233Z,-87
2016-08-13T08:32:58.503Z,-87
2016-08-13T08:33:58.311Z,-87
2016-08-13T08:34:58.157Z,-87
2016-08-13T08:35:58.319Z,-85
2016-08-13T08:36:58.328Z,-87
2016-08-13T08:37:58.336Z,-87
2016-08-13T08:38:58.239Z,-86
2016-08-13T08:39:58.328Z,-87
2016-08-13T08:40:58.419Z,-87
2016-08-13T08:41:58.270Z,-87
2016-08-13T08:42:58.255Z,-87
2016-08-13T08:43:58.286Z,-87
2016-08-13T08:44:58.191Z,-87
2016-08-13T08:45:58.279Z,-87
2016-08-13T08:46:58.288Z,-87
2016-08-13T08:47:58.389Z,-87
2016-08-13T08:48:58.442Z,-87
2016-08-13T08:49:58.353Z,-87
2016-08-13T08:50:58.444Z,-87
2016-08-13T08:51:58.230Z,-87
2016-08-13T08:55:06.035Z,-87
2016-08-13T08:55:12.848Z,-87
2016-08-13T08:56:12.926Z,-86
2016-08-13T08:57:12.996Z,-87
2016-08-13T08:58:13.071Z,-87
2016-08-13T08:59:13.005Z,-87
2016-08-13T09:00:13.015Z,-87
2016-08-13T09:01:12.918Z,-86
2016-08-13T09:02:13.009Z,-86
2016-08-13T09:05:20.668Z,-86
2016-08-13T09:05:27.482Z,-87
2016-08-13T09:06:27.718Z,-86
2016-08-13T09:07:27.560Z,-87
2016-08-13T09:08:27.567Z,-86
2016-08-13T09:09:27.633Z,-87
2016-08-13T09:10:27.703Z,-86
2016-08-13T09:11:27.666Z,-86
2016-08-13T09:12:27.572Z,-86
2016-08-13T09:13:27.578Z,-87
2016-08-13T09:14:27.654Z,-87
2016-08-13T09:15:27.562Z,-87
2016-08-13T09:16:27.590Z,-87
2016-08-13T09:17:27.584Z,-87
2016-08-13T09:18:27.662Z,-87
2016-08-13T09:19:27.593Z,-87
2016-08-13T09:20:27.678Z,-87
2016-08-13T09:21:27.686Z,-87
2016-08-13T09:22:27.540Z,-87
2016-08-13T09:23:27.677Z,-87
2016-08-13T09:24:27.778Z,-87
2016-08-13T09:25:27.680Z,-87
2016-08-13T09:26:27.687Z,-87
2016-08-13T09:27:27.691Z,-87
2016-08-13T09:28:27.617Z,-87
2016-08-13T09:29:27.769Z,-87
2016-08-13T09:30:27.692Z,-87
2016-08-13T09:31:27.708Z,-87
2016-08-13T09:32:27.659Z,-87
2016-08-13T09:33:27.675Z,-87
2016-08-13T09:34:27.793Z,-87
2016-08-13T09:35:27.792Z,-87
2016-08-13T09:36:27.643Z,-87
2016-08-13T09:37:27.793Z,-86
2016-08-13T09:38:27.650Z,-87
2016-08-13T09:39:27.644Z,-87
2016-08-13T09:40:27.714Z,-87
2016-08-13T09:41:27.826Z,-87
2016-08-13T09:42:27.820Z,-87
2016-08-13T09:43:27.758Z,-87
2016-08-13T09:44:27.592Z,-86
2016-08-13T09:45:27.803Z,-86
2016-08-13T09:46:27.826Z,-86
2016-08-13T09:47:27.873Z,-86
2016-08-13T09:48:27.750Z,-86
2016-08-13T09:49:27.686Z,-87
2016-08-13T09:50:27.694Z,-87
2016-08-13T09:51:27.679Z,-86
2016-08-13T09:52:27.679Z,-87
2016-08-13T09:53:27.788Z,-86
2016-08-13T09:54:27.701Z,-87
2016-08-13T09:55:27.708Z,-86
2016-08-13T09:56:27.874Z,-87
2016-08-13T09:57:27.725Z,-87
2016-08-13T09:58:27.777Z,-87
2016-08-13T09:59:27.696Z,-86
2016-08-13T10:00:27.856Z,-86
2016-08-13T10:01:27.864Z,-87
2016-08-13T10:02:27.708Z,-87
2016-08-13T10:03:27.727Z,-86
2016-08-13T10:04:27.801Z,-86
2016-08-13T10:05:27.816Z,-86
2016-08-13T10:06:27.662Z,-87
2016-08-13T10:07:27.723Z,-86
2016-08-13T10:08:27.814Z,-87
2016-08-13T10:09:27.825Z,-86
2016-08-13T10:10:27.874Z,-87
2016-08-13T10:11:27.821Z,-86
2016-08-13T10:12:27.843Z,-87
2016-08-13T10:13:27.826Z,-86
2016-08-13T10:14:27.683Z,-86
2016-08-13T10:15:27.831Z,-86
2016-08-13T10:16:27.767Z,-86
2016-08-13T10:17:27.745Z,-87
2016-08-13T10:18:27.847Z,-87
2016-08-13T10:19:27.933Z,-87
2016-08-13T10:20:27.773Z,-87
2016-08-13T10:21:27.775Z,-87
2016-08-13T10:22:27.846Z,-87
2016-08-13T10:23:27.779Z,-87
2016-08-13T10:24:27.856Z,-87
2016-08-13T10:25:27.774Z,-87
2016-08-13T10:26:27.851Z,-87
2016-08-13T10:27:27.853Z,-87
2016-08-13T10:28:27.793Z,-87
2016-08-13T10:29:27.799Z,-87
2016-08-13T10:30:27.956Z,-87
2016-08-13T10:31:27.788Z,-87
2016-08-13T10:32:27.742Z,-87
2016-08-13T10:33:27.991Z,-88
2016-08-13T10:34:27.872Z,-87
2016-08-13T10:35:27.872Z,-87
2016-08-13T10:36:27.731Z,-87
2016-08-13T10:37:27.738Z,-86
2016-08-13T10:38:27.952Z,-86
2016-08-13T10:39:27.913Z,-87
2016-08-13T10:40:27.920Z,-87
2016-08-13T10:41:27.974Z,-87
2016-08-13T10:42:27.932Z,-86
2016-08-13T10:43:27.986Z,-87
2016-08-13T10:44:27.997Z,-87
2016-08-13T10:45:27.784Z,-87
2016-08-13T10:46:27.984Z,-86
2016-08-13T10:47:28.006Z,-87
2016-08-13T10:48:27.994Z,-86
2016-08-13T10:49:27.842Z,-86
2016-08-13T10:50:27.850Z,-87
2016-08-13T10:51:27.871Z,-86
2016-08-13T10:52:27.934Z,-87
2016-08-13T10:53:27.946Z,-86
2016-08-13T10:54:28.017Z,-86
2016-08-13T10:55:27.947Z,-87
2016-08-13T10:56:27.872Z,-87
2016-08-13T10:57:27.889Z,-87
2016-08-13T10:58:27.877Z,-87
2016-08-13T10:59:27.949Z,-87
2016-08-13T11:00:28.039Z,-86
2016-08-13T11:01:27.812Z,-86
2016-08-13T11:02:27.883Z,-86
2016-08-13T11:03:27.895Z,-87
2016-08-13T11:04:27.956Z,-87
2016-08-13T11:05:27.967Z,-87
2016-08-13T11:06:27.912Z,-85
2016-08-13T11:07:27.897Z,-86
2016-08-13T11:08:27.923Z,-87
2016-08-13T11:09:27.986Z,-86
2016-08-13T11:10:27.990Z,-87
2016-08-13T11:11:27.913Z,-87
2016-08-13T11:12:27.995Z,-87
2016-08-13T11:13:27.828Z,-87
2016-08-13T11:14:27.925Z,-87
2016-08-13T11:15:27.933Z,-87
2016-08-13T11:16:27.995Z,-88
2016-08-13T11:17:27.855Z,-87
2016-08-13T11:18:28.104Z,-87
2016-08-13T11:19:27.953Z,-87
2016-08-13T11:20:28.105Z,-87
2016-08-13T11:21:28.044Z,-87
2016-08-13T11:22:28.031Z,-86
2016-08-13T11:23:28.018Z,-87
2016-08-13T11:24:27.949Z,-86
2016-08-13T11:25:27.961Z,-86
2016-08-13T11:26:27.958Z,-87
2016-08-13T11:27:28.131Z,-86
2016-08-13T11:28:28.056Z,-86
2016-08-13T11:29:27.991Z,-87
2016-08-13T11:30:28.053Z,-87
2016-08-13T11:31:28.049Z,-86
2016-08-13T11:32:27.984Z,-87
2016-08-13T11:33:28.340Z,-86
2016-08-13T11:34:27.914Z,-87
2016-08-13T11:35:27.988Z,-87
2016-08-13T11:36:27.996Z,-87
2016-08-13T11:37:28.004Z,-86
2016-08-13T11:38:28.070Z,-87
2016-08-13T11:39:28.081Z,-87
2016-08-13T11:40:27.990Z,-86
2016-08-13T11:41:28.010Z,-86
2016-08-13T11:42:27.929Z,-87
2016-08-13T11:43:28.004Z,-86
2016-08-13T11:44:28.167Z,-86
2016-08-13T11:45:28.167Z,-86
2016-08-13T11:46:28.026Z,-87
2016-08-13T11:47:27.935Z,-86
2016-08-13T11:48:28.018Z,-87
2016-08-13T11:49:27.967Z,-87
2016-08-13T11:50:27.947Z,-87
2016-08-13T11:51:28.951Z,-86
2016-08-13T11:52:28.026Z,-87
2016-08-13T11:53:28.123Z,-86
2016-08-13T11:54:28.032Z,-86
2016-08-13T11:55:28.145Z,-86
2016-08-13T11:56:27.962Z,-86
2016-08-13T11:57:28.212Z,-86
2016-08-13T11:58:28.133Z,-86
2016-08-13T11:59:28.051Z,-86
2016-08-13T12:00:28.217Z,-87
2016-08-13T12:01:28.751Z,-86
2016-08-13T12:02:27.977Z,-86
2016-08-13T12:03:28.157Z,-86
2016-08-13T12:04:28.086Z,-87
2016-08-13T12:05:28.143Z,-87
2016-08-13T12:06:28.167Z,-86
2016-08-13T12:07:28.151Z,-87
2016-08-13T12:08:28.096Z,-87
2016-08-13T12:09:28.077Z,-87
2016-08-13T12:10:28.171Z,-87
2016-08-13T12:11:28.092Z,-87
2016-08-13T12:12:28.108Z,-87
2016-08-13T12:13:28.167Z,-87
2016-08-13T12:14:28.180Z,-87
2016-08-13T12:15:28.107Z,-86
2016-08-13T12:16:28.022Z,-86
2016-08-13T12:17:28.249Z,-87
2016-08-13T12:18:28.145Z,-86
2016-08-13T12:19:28.050Z,-86
2016-08-13T12:20:28.027Z,-86
2016-08-13T12:21:28.217Z,-86
2016-08-13T12:22:28.143Z,-86
2016-08-13T12:23:28.137Z,-87
2016-08-13T12:24:28.213Z,-86
2016-08-13T12:25:28.131Z,-86
2016-08-13T12:26:28.145Z,-87
2016-08-13T12:27:28.299Z,-87
2016-08-13T12:28:28.287Z,-86
2016-08-13T12:29:28.147Z,-87
2016-08-13T12:30:28.073Z,-86
2016-08-13T12:31:28.134Z,-87
2016-08-13T12:32:28.300Z,-86
2016-08-13T12:33:28.255Z,-84
2016-08-13T12:34:28.409Z,-85
2016-08-13T12:35:28.308Z,-83
2016-08-13T12:36:28.161Z,-84
2016-08-13T12:37:28.082Z,-85
2016-08-13T12:38:28.080Z,-84
2016-08-13T12:39:28.171Z,-84
2016-08-13T12:40:28.247Z,-84
2016-08-13T12:41:28.328Z,-85
2016-08-13T12:42:28.315Z,-84
2016-08-13T12:43:28.279Z,-84
2016-08-13T12:44:28.185Z,-85
2016-08-13T12:45:28.289Z,-84
2016-08-13T12:46:28.278Z,-84
2016-08-13T12:47:28.267Z,-85
2016-08-13T12:48:28.114Z,-84
2016-08-13T12:49:28.295Z,-84
2016-08-13T12:50:28.357Z,-85
2016-08-13T12:51:28.201Z,-84
2016-08-13T12:52:28.149Z,-84
2016-08-13T12:53:28.325Z,-84
2016-08-13T12:54:28.220Z,-84
2016-08-13T12:55:28.293Z,-84
2016-08-13T12:56:28.224Z,-84
2016-08-13T12:57:28.234Z,-84
2016-08-13T12:58:28.290Z,-84
2016-08-13T12:59:28.158Z,-84
2016-08-13T13:00:28.313Z,-84
2016-08-13T13:01:28.232Z,-84
2016-08-13T13:02:28.265Z,-84
2016-08-13T13:03:28.388Z,-84
2016-08-13T13:04:28.240Z,-84
2016-08-13T13:05:28.261Z,-84
2016-08-13T13:06:28.268Z,-84
2016-08-13T13:07:28.345Z,-84
2016-08-13T13:08:28.273Z,-85
2016-08-13T13:09:28.192Z,-85
2016-08-13T13:10:28.198Z,-85
2016-08-13T13:11:28.265Z,-84
2016-08-13T13:12:28.270Z,-84
2016-08-13T13:13:28.349Z,-84
2016-08-13T13:14:28.268Z,-84
2016-08-13T13:15:28.202Z,-84
2016-08-13T13:16:28.430Z,-84
2016-08-13T13:17:28.357Z,-84
2016-08-13T13:18:28.361Z,-85
2016-08-13T13:19:28.435Z,-84
2016-08-13T13:20:28.296Z,-84
2016-08-13T13:21:28.482Z,-83
2016-08-13T13:22:28.444Z,-85
2016-08-13T13:23:28.400Z,-84
2016-08-13T13:24:28.387Z,-83
2016-08-13T13:25:28.382Z,-84
2016-08-13T13:26:28.401Z,-85
2016-08-13T13:27:28.315Z,-84
2016-08-13T13:28:28.395Z,-84
2016-08-13T13:29:28.239Z,-84
2016-08-13T13:30:28.479Z,-84
2016-08-13T13:31:28.470Z,-85
2016-08-13T13:32:28.327Z,-84
2016-08-13T13:33:28.407Z,-84
2016-08-13T13:34:28.790Z,-84
2016-08-13T13:35:28.382Z,-84
2016-08-13T13:36:28.444Z,-84
2016-08-13T13:37:28.412Z,-84
2016-08-13T13:38:28.475Z,-84
2016-08-13T13:39:28.490Z,-85
2016-08-13T13:40:28.279Z,-84
2016-08-13T13:41:28.337Z,-84
2016-08-13T13:42:28.932Z,-84
2016-08-13T13:43:28.367Z,-85
2016-08-13T13:44:28.363Z,-84
2016-08-13T13:45:28.355Z,-84
2016-08-13T13:46:28.509Z,-84
2016-08-13T13:47:28.462Z,-84
2016-08-13T13:48:29.300Z,-84
2016-08-13T13:49:28.385Z,-84
2016-08-13T13:50:28.377Z,-84
2016-08-13T13:51:28.408Z,-84
2016-08-13T13:52:28.453Z,-84
2016-08-13T13:53:28.487Z,-84
2016-08-13T13:54:28.372Z,-84